Time;durP1;ratioP1;P1;durP2;ratioP2;P2;SDS_P1;SDS_P2;PMS_P1;PMS_P2;Temp;Humidity;BMP_temperature;BMP_pressure;BME280_temperature;BME280_humidity;BME280_pressure;Samples;Min_cycle;Max_cycle;Signal;HPM_P1;HPM_P2
2022/05/11 00:01:39;;;;;;;0.30;0.30;;;20.80;90.00;;;;;;4419013;32;20136;-73
2022/05/11 00:04:06;;;;;;;1.15;0.70;;;20.70;90.40;;;;;;4437294;32;20081;-73
2022/05/11 00:06:33;;;;;;;8.80;1.25;;;20.70;90.80;;;;;;4434584;32;20076;-73
2022/05/11 00:08:58;;;;;;;2.72;1.25;;;20.70;91.10;;;;;;4421255;32;20184;-73
2022/05/11 00:11:27;;;;;;;0.85;0.60;;;20.70;92.30;;;;;;4421378;32;20517;-74
2022/05/11 00:13:53;;;;;;;0.50;0.50;;;20.70;92.80;;;;;;4422678;32;20121;-73
2022/05/11 00:16:19;;;;;;;0.30;0.30;;;20.60;93.80;;;;;;4427677;32;20553;-73
2022/05/11 00:18:45;;;;;;;0.40;0.40;;;20.50;94.30;;;;;;4420237;32;20073;-73
2022/05/11 00:21:11;;;;;;;0.20;0.20;;;20.40;94.80;;;;;;4418639;32;20081;-73
2022/05/11 00:23:37;;;;;;;1.65;0.80;;;20.30;95.30;;;;;;4419036;32;20086;-73
2022/05/11 00:26:03;;;;;;;3.08;0.40;;;20.20;96.10;;;;;;4420152;32;20286;-73
2022/05/11 00:28:28;;;;;;;6.35;0.47;;;20.00;96.70;;;;;;4408373;32;20442;-73
2022/05/11 00:30:54;;;;;;;6.87;2.22;;;19.80;97.40;;;;;;4401265;32;20077;-74
2022/05/11 00:33:20;;;;;;;0.45;0.37;;;19.90;97.80;;;;;;4420406;32;20422;-73
2022/05/11 00:35:48;;;;;;;0.40;0.40;;;19.80;98.20;;;;;;4419909;32;20065;-73
2022/05/11 00:38:15;;;;;;;0.60;0.45;;;19.70;98.70;;;;;;4421176;32;20504;-73
2022/05/11 00:40:45;;;;;;;0.75;0.45;;;19.70;98.90;;;;;;4420019;32;20077;-73
2022/05/11 00:43:11;;;;;;;0.70;0.65;;;19.60;99.30;;;;;;4420439;32;20414;-73
2022/05/11 00:45:44;;;;;;;0.50;0.50;;;19.50;99.60;;;;;;4423499;32;20082;-73
2022/05/11 00:51:01;;;;;;;0.40;0.40;;;19.40;99.90;;;;;;4420885;32;20069;-74
2022/05/11 00:53:27;;;;;;;0.60;0.60;;;19.40;99.90;;;;;;4419556;32;20549;-73
2022/05/11 00:55:56;;;;;;;0.35;0.35;;;19.40;99.90;;;;;;4420873;32;20090;-73
2022/05/11 00:58:46;;;;;;;2.03;1.35;;;19.40;99.90;;;;;;4409263;32;20141;-73
2022/05/11 01:01:12;;;;;;;2.00;0.82;;;19.40;99.90;;;;;;4400165;32;20089;-73
2022/05/11 01:03:52;;;;;;;0.43;0.43;;;19.40;99.90;;;;;;4422549;32;20097;-73
2022/05/11 01:06:18;;;;;;;12.18;1.15;;;19.30;99.90;;;;;;4424243;32;20105;-73
2022/05/11 01:08:44;;;;;;;1.00;0.70;;;19.20;99.90;;;;;;4436553;32;20102;-74
2022/05/11 01:11:10;;;;;;;0.37;0.37;;;19.20;99.90;;;;;;4438044;32;20066;-74
2022/05/11 01:13:38;;;;;;;0.40;0.40;;;19.10;99.90;;;;;;4436323;32;20141;-74
2022/05/11 01:16:04;;;;;;;0.40;0.40;;;19.00;99.90;;;;;;4436063;32;20526;-74
2022/05/11 01:18:30;;;;;;;0.30;0.30;;;19.00;99.90;;;;;;4435922;32;20081;-74
2022/05/11 01:20:56;;;;;;;0.82;0.82;;;19.00;99.90;;;;;;4437749;32;20493;-74
2022/05/11 01:23:46;;;;;;;0.55;0.55;;;19.00;99.90;;;;;;4435105;32;21773;-74
2022/05/11 01:26:16;;;;;;;0.37;0.37;;;19.10;99.90;;;;;;4424344;32;20077;-74
2022/05/11 01:28:44;;;;;;;0.40;0.40;;;19.10;99.90;;;;;;4423765;32;20238;-74
2022/05/11 01:31:11;;;;;;;0.82;0.60;;;19.00;99.90;;;;;;4418367;32;20152;-74
2022/05/11 01:33:41;;;;;;;1.40;0.68;;;19.00;99.90;;;;;;4438096;32;20057;-74
2022/05/11 01:36:11;;;;;;;0.43;0.40;;;19.00;99.90;;;;;;4436809;32;20559;-74
2022/05/11 01:38:41;;;;;;;0.30;0.30;;;19.00;99.90;;;;;;4439412;32;20173;-74
2022/05/11 01:41:09;;;;;;;1.00;0.47;;;19.10;99.90;;;;;;4438498;32;20057;-74
2022/05/11 01:43:37;;;;;;;0.73;0.73;;;19.00;99.90;;;;;;4442810;32;20088;-74
2022/05/11 01:46:03;;;;;;;16.58;0.50;;;19.10;99.90;;;;;;4440820;32;20061;-74
2022/05/11 01:48:29;;;;;;;1.30;0.75;;;19.00;99.90;;;;;;4441248;32;20101;-74
2022/05/11 01:50:55;;;;;;;10.10;1.75;;;19.00;99.90;;;;;;4437613;32;20150;-72
2022/05/11 01:53:21;;;;;;;0.40;0.40;;;18.90;99.90;;;;;;4442624;32;20142;-72
2022/05/11 01:55:46;;;;;;;0.70;0.70;;;18.90;99.90;;;;;;4434444;32;20086;-73
2022/05/11 01:58:12;;;;;;;0.47;0.47;;;18.90;99.90;;;;;;4431008;32;20053;-73
2022/05/11 02:00:40;;;;;;;20.23;1.90;;;18.80;99.90;;;;;;4415822;32;20096;-73
2022/05/11 02:03:06;;;;;;;0.50;0.50;;;18.80;99.90;;;;;;4436093;32;20367;-73
2022/05/11 02:08:04;;;;;;;3.60;0.93;;;18.80;99.90;;;;;;4437410;32;20501;-73
2022/05/11 02:08:17;;;;;;;0.50;0.50;;;18.80;99.90;;;;;;4422126;32;20066;-73
2022/05/11 02:10:43;;;;;;;0.30;0.30;;;18.80;99.90;;;;;;4423673;32;20081;-73
2022/05/11 02:13:09;;;;;;;0.60;0.55;;;18.80;99.90;;;;;;4424488;32;20148;-73
2022/05/11 02:15:36;;;;;;;1.40;0.80;;;18.80;99.90;;;;;;4425402;32;20061;-73
2022/05/11 02:18:03;;;;;;;0.57;0.52;;;18.80;99.90;;;;;;4423836;32;20177;-73
2022/05/11 02:20:28;;;;;;;1.67;0.57;;;18.70;99.90;;;;;;4424038;32;20069;-73
2022/05/11 02:22:54;;;;;;;0.90;0.88;;;18.80;99.90;;;;;;4423163;32;20508;-74
2022/05/11 02:25:20;;;;;;;0.50;0.50;;;18.70;99.90;;;;;;4421359;32;20463;-73
2022/05/11 02:27:47;;;;;;;0.37;0.37;;;18.80;99.90;;;;;;4420294;32;20093;-74
2022/05/11 02:30:21;;;;;;;0.62;0.62;;;18.70;99.90;;;;;;4402516;32;20085;-74
2022/05/11 02:32:47;;;;;;;0.80;0.55;;;18.70;99.90;;;;;;4418275;32;20061;-73
2022/05/11 02:35:13;;;;;;;0.40;0.40;;;18.70;99.90;;;;;;4422669;32;20102;-73
2022/05/11 02:37:43;;;;;;;0.40;0.40;;;18.70;99.90;;;;;;4419208;32;20081;-73
2022/05/11 02:40:09;;;;;;;0.80;0.62;;;18.80;99.90;;;;;;4422785;32;20135;-73
2022/05/11 02:42:35;;;;;;;0.40;0.40;;;18.80;99.90;;;;;;4422528;32;20081;-74
2022/05/11 02:45:01;;;;;;;1.02;0.80;;;18.70;99.90;;;;;;4422381;32;20090;-73
2022/05/11 02:47:26;;;;;;;0.47;0.45;;;18.80;99.90;;;;;;4423791;32;20644;-73
2022/05/11 02:49:52;;;;;;;0.47;0.35;;;18.80;99.90;;;;;;4423065;32;20147;-73
2022/05/11 02:52:18;;;;;;;2.92;0.65;;;18.90;99.90;;;;;;4424305;32;20392;-73
2022/05/11 02:54:46;;;;;;;0.40;0.40;;;18.80;99.90;;;;;;4418923;32;20074;-73
2022/05/11 02:57:13;;;;;;;0.98;0.85;;;18.70;99.90;;;;;;4418251;32;20070;-73
2022/05/11 02:59:38;;;;;;;0.50;0.50;;;18.70;99.90;;;;;;4400157;32;20065;-74
2022/05/11 03:02:04;;;;;;;0.90;0.75;;;18.60;99.90;;;;;;4411697;32;20073;-73
2022/05/11 03:04:29;;;;;;;0.95;0.62;;;18.60;99.90;;;;;;4422790;32;20066;-73
2022/05/11 03:06:55;;;;;;;0.32;0.32;;;18.50;99.90;;;;;;4426354;32;20113;-74
2022/05/11 03:09:20;;;;;;;0.30;0.30;;;18.40;99.90;;;;;;4434134;32;20362;-73
2022/05/11 03:11:46;;;;;;;0.37;0.37;;;18.40;99.90;;;;;;4433212;32;20073;-72
2022/05/11 03:14:12;;;;;;;0.50;0.50;;;18.50;99.90;;;;;;4436038;32;20073;-72
2022/05/11 03:16:39;;;;;;;0.43;0.43;;;18.60;99.90;;;;;;4435684;32;20482;-72
2022/05/11 03:19:05;;;;;;;0.35;0.35;;;18.50;99.90;;;;;;4440468;32;20484;-72
2022/05/11 03:21:31;;;;;;;0.37;0.37;;;18.40;99.90;;;;;;4438710;32;20089;-72
2022/05/11 03:23:57;;;;;;;8.40;1.33;;;18.30;99.90;;;;;;4437516;32;20121;-72
2022/05/11 03:26:23;;;;;;;0.75;0.75;;;18.40;99.90;;;;;;4435879;32;20544;-72
2022/05/11 03:28:48;;;;;;;0.60;0.40;;;18.50;99.90;;;;;;4419068;32;20133;-73
2022/05/11 03:31:14;;;;;;;0.37;0.37;;;18.40;99.90;;;;;;4418258;32;20069;-72
2022/05/11 03:34:41;;;;;;;0.40;0.40;;;18.30;99.90;;;;;;4436832;32;20060;-72
2022/05/11 03:36:26;;;;;;;0.47;0.47;;;18.30;99.90;;;;;;4421935;32;20101;-73
2022/05/11 03:38:51;;;;;;;0.85;0.77;;;18.30;99.90;;;;;;4439041;32;20108;-72
2022/05/11 03:41:17;;;;;;;0.22;0.22;;;18.40;99.90;;;;;;4435556;32;20072;-73
2022/05/11 03:43:43;;;;;;;0.50;0.50;;;18.50;99.90;;;;;;4434447;32;20394;-73
2022/05/11 03:46:08;;;;;;;0.37;0.37;;;18.50;99.90;;;;;;4435468;32;20093;-73
2022/05/11 03:48:34;;;;;;;0.35;0.35;;;18.50;99.90;;;;;;4437374;32;20200;-73
2022/05/11 03:51:00;;;;;;;0.50;0.50;;;18.40;99.90;;;;;;4437599;32;20084;-73
2022/05/11 03:53:26;;;;;;;0.82;0.57;;;18.30;99.90;;;;;;4435400;32;20143;-73
2022/05/11 03:55:52;;;;;;;2.20;1.37;;;18.30;99.90;;;;;;4438300;32;20078;-73
2022/05/11 03:58:18;;;;;;;0.50;0.50;;;18.20;99.90;;;;;;4426964;32;20477;-73
2022/05/11 04:00:43;;;;;;;0.50;0.50;;;18.30;99.90;;;;;;4412242;32;20738;-73
2022/05/11 04:03:09;;;;;;;0.80;0.52;;;18.20;99.90;;;;;;4435474;32;20089;-73
2022/05/11 04:05:34;;;;;;;0.45;0.45;;;18.20;99.90;;;;;;4435520;32;20085;-73
2022/05/11 04:08:00;;;;;;;0.32;0.32;;;18.10;99.90;;;;;;4436434;32;20120;-73
2022/05/11 04:10:26;;;;;;;0.70;0.68;;;18.00;99.90;;;;;;4432042;32;20069;-73
2022/05/11 04:12:51;;;;;;;0.47;0.47;;;18.00;99.90;;;;;;4433972;32;20123;-73
2022/05/11 04:15:17;;;;;;;0.60;0.60;;;18.00;99.90;;;;;;4436555;32;20116;-73
2022/05/11 04:17:44;;;;;;;3.15;0.73;;;18.00;99.90;;;;;;4436305;32;20124;-73
2022/05/11 04:20:14;;;;;;;7.82;1.50;;;18.00;99.90;;;;;;4433330;32;20093;-72
2022/05/11 04:22:39;;;;;;;0.35;0.35;;;18.10;99.90;;;;;;4410425;32;20131;-73
2022/05/11 04:25:06;;;;;;;1.37;0.95;;;18.10;99.90;;;;;;4393982;32;20069;-72
2022/05/11 04:27:33;;;;;;;0.35;0.35;;;18.00;99.90;;;;;;4392610;32;20283;-72
2022/05/11 04:30:00;;;;;;;1.75;0.90;;;18.00;99.90;;;;;;4377932;32;20537;-73
2022/05/11 04:32:26;;;;;;;0.52;0.52;;;17.80;99.90;;;;;;4385376;32;20451;-72
2022/05/11 04:34:51;;;;;;;0.35;0.35;;;17.80;99.90;;;;;;4407305;32;20588;-73
2022/05/11 04:37:17;;;;;;;0.75;0.60;;;17.70;99.90;;;;;;4436558;32;20097;-72
2022/05/11 04:39:42;;;;;;;0.60;0.60;;;17.70;99.90;;;;;;4433905;32;20081;-72
2022/05/11 04:42:09;;;;;;;0.93;0.73;;;17.60;99.90;;;;;;4435506;32;20180;-72
2022/05/11 04:44:35;;;;;;;0.90;0.68;;;17.60;99.90;;;;;;4437239;32;20178;-72
2022/05/11 04:47:10;;;;;;;0.80;0.80;;;17.50;99.90;;;;;;4434712;32;20060;-72
2022/05/11 04:49:36;;;;;;;0.60;0.60;;;17.60;99.90;;;;;;4435268;32;20073;-72
2022/05/11 04:52:07;;;;;;;0.82;0.82;;;17.70;99.90;;;;;;4423672;32;20097;-73
2022/05/11 04:54:34;;;;;;;;;;;17.70;99.90;;;;;;4390877;32;20093;-73
2022/05/11 04:57:00;;;;;;;0.68;0.68;;;17.80;99.90;;;;;;4412484;32;19953;-73
2022/05/11 04:59:25;;;;;;;1.48;0.45;;;17.90;99.90;;;;;;4412868;32;20125;-73
2022/05/11 05:01:51;;;;;;;1.37;0.80;;;18.00;99.90;;;;;;4407155;32;20065;-72
2022/05/11 05:04:19;;;;;;;1.55;0.93;;;18.00;99.90;;;;;;4403013;32;20165;-73
2022/05/11 05:06:45;;;;;;;0.40;0.40;;;18.00;99.90;;;;;;4390368;32;20343;-73
2022/05/11 05:09:10;;;;;;;1.10;0.60;;;18.00;99.90;;;;;;4376933;32;20223;-72
2022/05/11 05:11:36;;;;;;;0.52;0.52;;;18.10;99.90;;;;;;4376035;32;20097;-73
2022/05/11 05:14:04;;;;;;;0.80;0.73;;;18.20;99.90;;;;;;4371505;32;20567;-73
2022/05/11 05:16:31;;;;;;;9.95;1.45;;;18.10;99.90;;;;;;4392188;32;21230;-74
2022/05/11 05:18:56;;;;;;;0.40;0.40;;;18.00;99.90;;;;;;4347357;32;20217;-74
2022/05/11 05:21:22;;;;;;;0.40;0.40;;;18.00;99.90;;;;;;4340426;32;20781;-74
2022/05/11 05:23:47;;;;;;;0.43;0.43;;;18.00;99.90;;;;;;4310165;32;20233;-74
2022/05/11 05:26:13;;;;;;;0.50;0.50;;;18.10;99.90;;;;;;4323600;32;20322;-73
2022/05/11 05:31:13;;;;;;;0.60;0.60;;;18.20;99.90;;;;;;4337133;32;20457;-73
2022/05/11 05:31:27;;;;;;;0.57;0.50;;;18.20;99.90;;;;;;4309098;32;20737;-74
2022/05/11 05:33:58;;;;;;;0.70;0.70;;;18.00;99.90;;;;;;4350587;32;20423;-74
2022/05/11 05:36:24;;;;;;;0.47;0.47;;;17.90;99.90;;;;;;4340033;32;20133;-75
2022/05/11 05:38:49;;;;;;;0.40;0.40;;;17.90;99.90;;;;;;4349241;32;20249;-74
2022/05/11 05:41:15;;;;;;;1.50;0.60;;;18.00;99.90;;;;;;4349409;32;20352;-73
2022/05/11 05:43:41;;;;;;;0.60;0.60;;;18.10;99.90;;;;;;4361037;32;20082;-73
2022/05/11 05:46:07;;;;;;;2.67;0.85;;;18.20;99.90;;;;;;4371173;32;20493;-73
2022/05/11 05:48:32;;;;;;;2.15;1.42;;;18.30;99.90;;;;;;4378183;32;20141;-74
2022/05/11 05:51:04;;;;;;;0.88;0.82;;;18.30;99.90;;;;;;4372420;32;20417;-74
2022/05/11 05:53:29;;;;;;;0.70;0.60;;;18.30;99.90;;;;;;4377864;32;20215;-73
2022/05/11 05:55:55;;;;;;;0.80;0.75;;;18.10;99.90;;;;;;4380759;32;20266;-74
2022/05/11 05:58:20;;;;;;;4.37;1.48;;;18.10;99.90;;;;;;4368445;32;20130;-74
2022/05/11 06:00:46;;;;;;;0.60;0.60;;;18.10;99.90;;;;;;4362857;32;20092;-75
2022/05/11 06:03:18;;;;;;;0.28;0.28;;;18.10;99.90;;;;;;4352849;32;21065;-75
2022/05/11 06:05:44;;;;;;;0.50;0.50;;;18.00;99.90;;;;;;4354012;32;20105;-74
2022/05/11 06:08:13;;;;;;;0.40;0.40;;;18.10;99.90;;;;;;4380944;32;22635;-74
2022/05/11 06:10:39;;;;;;;0.50;0.50;;;18.10;99.90;;;;;;4386562;32;20921;-74
2022/05/11 06:13:06;;;;;;;2.15;1.15;;;18.20;99.90;;;;;;4397886;32;20101;-74
2022/05/11 06:15:32;;;;;;;0.40;0.40;;;18.20;99.90;;;;;;4393286;32;20349;-75
2022/05/11 06:17:57;;;;;;;0.88;0.65;;;18.20;99.90;;;;;;4392118;32;20089;-75
2022/05/11 06:20:23;;;;;;;0.95;0.68;;;18.10;99.90;;;;;;4397617;32;20154;-75
2022/05/11 06:22:50;;;;;;;0.52;0.50;;;17.90;99.90;;;;;;4397659;32;20829;-75
2022/05/11 06:25:18;;;;;;;0.68;0.68;;;17.80;99.90;;;;;;4398986;32;20657;-74
2022/05/11 06:27:44;;;;;;;2.40;1.25;;;17.80;99.90;;;;;;4404230;32;20985;-74
2022/05/11 06:30:10;;;;;;;0.75;0.75;;;17.70;99.90;;;;;;4388518;32;20080;-74
2022/05/11 06:32:36;;;;;;;0.73;0.73;;;17.70;99.90;;;;;;4388528;32;20325;-74
2022/05/11 06:35:02;;;;;;;1.73;0.68;;;17.70;99.90;;;;;;4380385;32;20399;-75
2022/05/11 06:37:28;;;;;;;0.47;0.47;;;17.70;99.90;;;;;;4390210;32;20093;-74
2022/05/11 06:39:54;;;;;;;2.45;1.25;;;17.70;99.90;;;;;;4398411;32;20724;-75
2022/05/11 06:42:20;;;;;;;0.65;0.65;;;17.70;99.90;;;;;;4392598;32;20848;-74
2022/05/11 06:44:47;;;;;;;3.17;0.62;;;17.80;99.90;;;;;;4394794;32;20102;-74
2022/05/11 06:47:12;;;;;;;0.40;0.40;;;17.90;99.90;;;;;;4391809;32;20148;-74
2022/05/11 06:49:38;;;;;;;7.60;1.12;;;18.00;99.90;;;;;;4380016;32;21105;-73
2022/05/11 06:52:04;;;;;;;0.75;0.75;;;18.10;99.90;;;;;;4390514;32;20117;-74
2022/05/11 06:59:22;;;;;;;0.73;0.70;;;18.30;99.90;;;;;;4382981;32;20328;-74
2022/05/11 07:00:00;;;;;;;0.60;0.55;;;18.50;99.90;;;;;;4375005;32;20407;-75
2022/05/11 07:02:26;;;;;;;0.40;0.40;;;18.50;99.90;;;;;;4385708;32;20911;-73
2022/05/11 07:04:52;;;;;;;0.50;0.50;;;18.60;99.90;;;;;;4377800;32;20790;-74
2022/05/11 07:07:18;;;;;;;0.93;0.85;;;18.70;99.90;;;;;;4384438;32;21305;-74
2022/05/11 07:09:44;;;;;;;1.25;0.85;;;18.80;99.90;;;;;;4402365;32;20093;-74
2022/05/11 07:12:17;;;;;;;0.70;0.70;;;18.90;99.90;;;;;;4399241;32;20174;-75
2022/05/11 07:14:45;;;;;;;0.77;0.52;;;19.00;99.90;;;;;;4392579;32;20701;-75
2022/05/11 07:17:11;;;;;;;0.65;0.65;;;19.00;99.90;;;;;;4391278;32;20688;-75
2022/05/11 07:19:42;;;;;;;0.68;0.57;;;19.10;99.90;;;;;;4380515;32;20636;-73
2022/05/11 07:22:07;;;;;;;0.50;0.50;;;19.20;99.90;;;;;;4393548;32;20917;-74
2022/05/11 07:24:33;;;;;;;0.30;0.30;;;19.50;99.90;;;;;;4392631;32;21417;-74
2022/05/11 07:26:59;;;;;;;0.50;0.50;;;19.60;99.90;;;;;;4390434;32;20886;-74
2022/05/11 07:29:25;;;;;;;0.30;0.30;;;19.60;99.90;;;;;;4379964;32;21191;-73
2022/05/11 07:31:51;;;;;;;0.57;0.57;;;19.60;99.90;;;;;;4360056;32;20245;-74
2022/05/11 07:34:17;;;;;;;0.30;0.30;;;19.70;99.90;;;;;;4350948;32;20952;-74
2022/05/11 07:36:43;;;;;;;0.40;0.40;;;19.90;99.90;;;;;;4370437;32;89990;-74
2022/05/11 07:39:09;;;;;;;0.60;0.60;;;19.80;99.90;;;;;;4393122;32;20313;-74
2022/05/11 07:41:36;;;;;;;1.37;0.73;;;20.00;99.90;;;;;;4399431;32;20635;-75
2022/05/11 07:44:03;;;;;;;1.25;1.05;;;20.20;99.90;;;;;;4398281;32;21003;-75
2022/05/11 07:46:34;;;;;;;1.40;0.40;;;20.40;99.90;;;;;;4395711;32;21318;-75
2022/05/11 07:49:01;;;;;;;1.45;0.90;;;20.60;99.90;;;;;;4375076;32;20101;-74
2022/05/11 07:51:26;;;;;;;0.50;0.50;;;20.70;99.90;;;;;;4374554;32;20104;-76
2022/05/11 07:53:52;;;;;;;0.35;0.35;;;20.70;99.90;;;;;;4380261;32;20829;-76
2022/05/11 08:00:06;;;;;;;0.68;0.45;;;20.60;99.90;;;;;;4372157;32;21067;-76
2022/05/11 08:01:49;;;;;;;0.40;0.40;;;20.90;99.90;;;;;;4364682;32;20345;-76
2022/05/11 08:04:15;;;;;;;0.45;0.43;;;21.10;99.90;;;;;;4368254;32;20342;-75
2022/05/11 08:06:40;;;;;;;0.37;0.37;;;21.20;99.90;;;;;;4374265;32;21424;-76
2022/05/11 08:09:07;;;;;;;0.90;0.88;;;21.30;99.90;;;;;;4388691;32;20150;-75
2022/05/11 08:11:32;;;;;;;0.40;0.40;;;21.30;99.90;;;;;;4388088;32;20985;-78
2022/05/11 08:14:00;;;;;;;1.60;0.90;;;21.50;99.90;;;;;;4383545;32;20168;-78
2022/05/11 08:16:26;;;;;;;0.50;0.50;;;21.70;99.90;;;;;;4390181;32;20871;-77
2022/05/11 08:18:52;;;;;;;0.62;0.62;;;21.80;99.90;;;;;;4380461;32;20103;-75
2022/05/11 08:21:19;;;;;;;0.30;0.30;;;21.90;99.90;;;;;;4393053;32;20081;-76
2022/05/11 08:23:46;;;;;;;0.60;0.60;;;21.80;99.90;;;;;;4390941;32;20116;-77
2022/05/11 08:26:11;;;;;;;1.55;1.15;;;21.70;99.90;;;;;;4381531;32;20612;-77
2022/05/11 08:28:37;;;;;;;0.75;0.75;;;21.90;99.90;;;;;;4367889;32;20094;-75
2022/05/11 08:33:37;;;;;;;0.98;0.75;;;22.00;99.90;;;;;;4370087;32;21528;-76
2022/05/11 08:33:48;;;;;;;0.60;0.60;;;21.90;99.90;;;;;;4339720;32;20126;-76
2022/05/11 08:36:19;;;;;;;0.50;0.50;;;21.90;99.90;;;;;;4355685;32;20100;-75
2022/05/11 08:38:51;;;;;;;0.62;0.62;;;22.00;99.90;;;;;;4374689;32;20161;-75
2022/05/11 08:41:47;;;;;;;0.28;0.28;;;22.20;99.90;;;;;;4366995;32;20089;-76
2022/05/11 08:44:16;;;;;;;0.45;0.45;;;22.50;99.90;;;;;;4369546;32;21526;-74
2022/05/11 08:46:47;;;;;;;0.30;0.30;;;22.60;99.90;;;;;;4375838;32;20211;-75
2022/05/11 08:49:38;;;;;;;2.95;0.82;;;22.20;99.90;;;;;;4371086;32;20191;-75
2022/05/11 08:52:10;;;;;;;1.10;1.00;;;22.40;99.90;;;;;;4384270;32;20730;-76
2022/05/11 08:54:58;;;;;;;0.30;0.30;;;22.70;99.90;;;;;;4392812;32;20155;-76
2022/05/11 08:57:25;;;;;;;0.40;0.40;;;22.90;99.90;;;;;;4381942;32;20592;-77
2022/05/11 08:59:58;;;;;;;0.70;0.70;;;23.00;99.90;;;;;;4391856;32;20441;-76
2022/05/11 09:02:31;;;;;;;0.22;0.22;;;23.00;99.90;;;;;;4379665;32;20760;-75
2022/05/11 09:05:00;;;;;;;0.55;0.55;;;22.90;99.90;;;;;;4362148;32;21545;-75
2022/05/11 09:07:29;;;;;;;2.60;0.65;;;23.00;99.90;;;;;;4388049;32;20086;-77
2022/05/11 09:09:55;;;;;;;0.40;0.35;;;23.00;99.90;;;;;;4386359;32;20729;-77
2022/05/11 09:12:21;;;;;;;1.20;0.82;;;22.80;99.90;;;;;;4387821;32;20092;-76
2022/05/11 09:14:52;;;;;;;1.48;0.60;;;22.90;99.90;;;;;;4396006;32;20108;-76
2022/05/11 09:17:22;;;;;;;0.43;0.43;;;22.90;99.90;;;;;;4384093;32;20304;-76
2022/05/11 09:19:59;;;;;;;0.93;0.90;;;23.10;99.90;;;;;;4363346;32;20117;-75
2022/05/11 09:22:26;;;;;;;0.52;0.52;;;23.20;99.90;;;;;;4376491;32;20520;-73
2022/05/11 09:24:56;;;;;;;0.30;0.30;;;23.50;99.80;;;;;;4381482;32;20306;-74
2022/05/11 09:27:28;;;;;;;6.27;1.50;;;23.70;99.50;;;;;;4382005;32;20104;-73
2022/05/11 09:30:02;;;;;;;0.30;0.30;;;23.90;98.50;;;;;;4383697;32;22161;-74
2022/05/11 09:32:38;;;;;;;0.73;0.50;;;24.00;98.10;;;;;;4387292;32;20495;-74
2022/05/11 09:35:18;;;;;;;1.17;0.90;;;24.10;98.20;;;;;;4375754;32;20249;-73
2022/05/11 09:37:53;;;;;;;0.65;0.62;;;24.10;98.00;;;;;;4396217;32;23418;-74
2022/05/11 09:40:21;;;;;;;1.05;0.70;;;24.20;98.00;;;;;;4391778;32;20084;-73
2022/05/11 09:42:51;;;;;;;0.65;0.57;;;24.50;97.10;;;;;;4407305;32;20065;-75
2022/05/11 09:45:45;;;;;;;22.67;1.27;;;24.70;97.50;;;;;;4404144;32;20121;-73
2022/05/11 09:48:16;;;;;;;0.47;0.47;;;24.70;96.40;;;;;;4370614;32;20950;-73
2022/05/11 09:50:43;;;;;;;0.40;0.40;;;24.50;96.50;;;;;;4378173;32;20787;-74
2022/05/11 09:53:24;;;;;;;3.30;1.65;;;24.50;96.10;;;;;;4392491;32;20394;-74
2022/05/11 09:55:50;;;;;;;0.57;0.57;;;24.80;95.90;;;;;;4386885;32;20941;-74
2022/05/11 09:58:28;;;;;;;0.30;0.30;;;25.20;95.20;;;;;;4393813;32;20117;-74
2022/05/11 10:01:08;;;;;;;3.53;0.95;;;25.30;94.80;;;;;;4378368;32;20410;-74
2022/05/11 10:03:34;;;;;;;0.75;0.50;;;25.30;94.30;;;;;;4375073;32;20739;-74
2022/05/11 10:06:00;;;;;;;0.40;0.40;;;25.20;94.70;;;;;;4376105;32;20101;-73
2022/05/11 10:08:31;;;;;;;0.60;0.60;;;25.40;94.20;;;;;;4383743;32;20820;-73
2022/05/11 10:11:06;;;;;;;0.60;0.60;;;25.60;93.90;;;;;;4395437;32;20562;-73
2022/05/11 10:13:36;;;;;;;0.30;0.30;;;25.80;93.70;;;;;;4392249;32;20788;-73
2022/05/11 10:22:12;;;;;;;0.40;0.40;;;26.20;92.70;;;;;;4381798;32;21241;-72
2022/05/11 10:25:05;;;;;;;1.02;0.70;;;26.70;91.60;;;;;;4388471;32;20562;-73
2022/05/11 10:28:10;;;;;;;0.60;0.37;;;26.90;91.50;;;;;;4389851;32;20160;-72
2022/05/11 10:31:02;;;;;;;8.05;0.47;;;26.90;90.90;;;;;;4373706;32;20491;-73
2022/05/11 10:34:07;;;;;;;0.70;0.60;;;26.90;91.00;;;;;;4386148;32;20118;-72
2022/05/11 10:36:53;;;;;;;0.40;0.40;;;27.30;90.20;;;;;;4378040;32;20108;-72
2022/05/11 10:39:44;;;;;;;1.23;0.77;;;27.50;89.40;;;;;;4405254;32;20112;-72
2022/05/11 10:42:19;;;;;;;0.43;0.35;;;27.20;88.50;;;;;;4394844;32;20118;-72
2022/05/11 10:45:10;;;;;;;0.57;0.57;;;27.40;88.60;;;;;;4408736;32;20278;-73
2022/05/11 10:48:16;;;;;;;0.30;0.30;;;27.20;88.20;;;;;;4383665;32;20300;-73
2022/05/11 10:51:07;;;;;;;1.37;0.65;;;27.10;88.60;;;;;;4364893;32;20403;-73
2022/05/11 10:53:46;;;;;;;0.30;0.30;;;26.80;89.20;;;;;;4384180;32;21761;-73
2022/05/11 10:56:28;;;;;;;0.45;0.45;;;26.80;90.00;;;;;;4384453;32;20105;-73
2022/05/11 10:58:59;;;;;;;0.20;0.20;;;26.80;89.90;;;;;;4389447;32;20532;-73
2022/05/11 11:01:34;;;;;;;1.27;0.43;;;26.90;90.20;;;;;;4384335;32;20443;-72
2022/05/11 11:04:12;;;;;;;0.40;0.40;;;26.90;89.40;;;;;;4384400;32;20865;-72
2022/05/11 11:07:21;;;;;;;0.55;0.37;;;26.70;88.10;;;;;;4393975;32;20122;-73
2022/05/11 11:10:26;;;;;;;4.78;0.57;;;26.60;88.80;;;;;;4396107;32;20692;-72
2022/05/11 11:13:16;;;;;;;0.30;0.30;;;26.80;88.30;;;;;;4380926;32;20732;-72
2022/05/11 11:15:43;;;;;;;0.40;0.40;;;27.70;84.60;;;;;;4382690;32;20141;-72
2022/05/11 11:18:11;;;;;;;0.30;0.30;;;28.00;81.90;;;;;;4371240;32;20730;-73
2022/05/11 11:20:40;;;;;;;0.85;0.52;;;27.60;81.90;;;;;;4371656;32;20140;-73
2022/05/11 11:23:09;;;;;;;0.13;0.13;;;27.40;83.00;;;;;;4389556;32;20282;-72
2022/05/11 11:25:55;;;;;;;0.20;0.20;;;27.00;83.90;;;;;;4399054;32;20077;-73
2022/05/11 11:28:24;;;;;;;0.98;0.85;;;26.90;85.10;;;;;;4385200;32;20120;-72
2022/05/11 11:31:12;;;;;;;0.20;0.20;;;26.90;84.50;;;;;;4395853;32;20128;-72
2022/05/11 11:33:39;;;;;;;6.55;0.88;;;27.40;83.40;;;;;;4372170;32;20178;-72
2022/05/11 11:36:27;;;;;;;0.28;0.28;;;27.50;84.50;;;;;;4391130;32;20371;-72
2022/05/11 11:38:53;;;;;;;1.12;0.70;;;27.40;82.20;;;;;;4377167;32;20211;-73
2022/05/11 11:41:30;;;;;;;0.35;0.25;;;27.30;82.30;;;;;;4389137;32;20371;-72
2022/05/11 11:44:36;;;;;;;3.58;1.08;;;27.80;81.00;;;;;;4381825;32;20952;-73
2022/05/11 11:47:26;;;;;;;2.08;0.90;;;28.60;81.50;;;;;;4343891;32;22133;-72
2022/05/11 11:49:54;;;;;;;1.17;0.52;;;29.40;78.50;;;;;;4344985;32;20885;-72
2022/05/11 11:52:43;;;;;;;0.32;0.32;;;29.90;72.90;;;;;;4362562;32;20520;-73
2022/05/11 11:55:24;;;;;;;0.55;0.40;;;30.10;68.80;;;;;;4385572;32;20721;-73
2022/05/11 11:57:57;;;;;;;5.20;0.88;;;30.60;68.20;;;;;;4361453;32;20173;-74
2022/05/11 12:00:45;;;;;;;0.30;0.30;;;31.00;64.80;;;;;;4392141;32;20117;-74
2022/05/11 12:03:23;;;;;;;0.35;0.30;;;30.70;64.60;;;;;;4385699;32;20932;-73
2022/05/11 12:15:01;;;;;;;0.35;0.35;;;31.00;65.30;;;;;;4386935;32;20420;-74
2022/05/11 12:15:20;;;;;;;0.88;0.70;;;31.70;61.10;;;;;;4381970;32;20081;-72
2022/05/11 12:17:08;;;;;;;0.22;0.20;;;31.80;59.80;;;;;;4366769;32;20121;-72
2022/05/11 12:19:36;;;;;;;0.10;0.10;;;30.80;61.00;;;;;;4371911;32;20100;-75
2022/05/11 12:22:22;;;;;;;2.45;1.02;;;30.30;62.80;;;;;;4388380;32;20380;-75
2022/05/11 12:24:58;;;;;;;0.37;0.28;;;29.90;64.00;;;;;;4395923;32;20202;-74
2022/05/11 12:27:31;;;;;;;1.02;0.37;;;29.60;65.40;;;;;;4401839;32;20901;-73
2022/05/11 12:30:00;;;;;;;0.43;0.32;;;29.60;66.10;;;;;;4390500;32;20158;-74
2022/05/11 12:32:31;;;;;;;0.43;0.43;;;29.80;65.50;;;;;;4383860;32;20558;-74
2022/05/11 12:35:07;;;;;;;0.40;0.40;;;29.90;65.80;;;;;;4389414;32;20176;-73
2022/05/11 12:37:37;;;;;;;0.28;0.28;;;30.60;64.90;;;;;;4391220;32;20126;-73
2022/05/11 12:40:13;;;;;;;0.15;0.15;;;30.90;64.20;;;;;;4392990;32;20154;-73
2022/05/11 12:42:43;;;;;;;0.40;0.30;;;30.90;64.30;;;;;;4399273;32;20724;-73
2022/05/11 12:45:13;;;;;;;0.30;0.30;;;30.70;63.00;;;;;;4393423;32;20117;-76
2022/05/11 12:47:44;;;;;;;1.55;0.70;;;30.30;64.80;;;;;;4384161;32;20205;-73
2022/05/11 12:50:23;;;;;;;0.10;0.10;;;30.00;65.30;;;;;;4377968;32;20077;-73
2022/05/11 12:53:09;;;;;;;0.15;0.15;;;30.70;62.50;;;;;;4400472;32;21137;-73
2022/05/11 12:55:36;;;;;;;0.40;0.30;;;30.70;63.10;;;;;;4398833;32;20090;-73
2022/05/11 12:58:04;;;;;;;0.43;0.40;;;29.90;63.50;;;;;;4407116;32;20595;-73
2022/05/11 13:00:31;;;;;;;0.98;0.52;;;30.10;64.40;;;;;;4394611;32;20057;-73
2022/05/11 13:02:57;;;;;;;1.10;0.73;;;30.40;64.20;;;;;;4398190;32;20311;-73
2022/05/11 13:05:23;;;;;;;0.93;0.73;;;30.60;63.30;;;;;;4386251;32;20180;-74
2022/05/11 13:07:56;;;;;;;0.20;0.20;;;31.10;62.40;;;;;;4388777;32;20126;-74
2022/05/11 13:10:33;;;;;;;8.23;0.93;;;30.50;63.60;;;;;;4401012;32;20109;-73
2022/05/11 13:13:00;;;;;;;0.00;0.00;;;29.90;65.20;;;;;;4390362;32;20626;-74
2022/05/11 13:15:35;;;;;;;0.70;0.45;;;29.40;66.20;;;;;;4388795;32;20320;-74
2022/05/11 13:18:00;;;;;;;0.20;0.20;;;29.50;67.00;;;;;;4376158;32;20294;-75
2022/05/11 13:20:27;;;;;;;0.15;0.15;;;29.70;66.70;;;;;;4366949;32;20191;-75
2022/05/11 13:22:58;;;;;;;0.20;0.20;;;30.50;64.90;;;;;;4388581;32;20267;-74
2022/05/11 13:25:46;;;;;;;0.17;0.17;;;30.40;64.40;;;;;;4404816;32;20824;-75